Time;durP1;ratioP1;P1;durP2;ratioP2;P2;SDS_P1;SDS_P2;PMS_P1;PMS_P2;Temp;Humidity;BMP_temperature;BMP_pressure;BME280_temperature;BME280_humidity;BME280_pressure;Samples;Min_cycle;Max_cycle;Signal;HPM_P1;HPM_P2
2021/01/30 00:00:45;;;;;;;32.80;18.23;;;179.70;2252.80;;;;;;5091601;28;20020;-66
2021/01/30 00:03:12;;;;;;;25.63;15.02;;;179.60;2252.80;;;;;;5093726;28;20031;-68
2021/01/30 00:05:38;;;;;;;22.50;13.80;;;179.70;2252.80;;;;;;5093695;28;20451;-69
2021/01/30 00:08:04;;;;;;;29.95;16.55;;;179.60;2252.80;;;;;;5059463;28;20051;-68
2021/01/30 00:10:30;;;;;;;25.80;14.82;;;179.70;2252.80;;;;;;5074706;28;20093;-68
2021/01/30 00:12:55;;;;;;;34.33;18.00;;;179.70;2252.80;;;;;;5093329;28;20076;-69
2021/01/30 00:15:22;;;;;;;29.73;17.02;;;179.60;2252.80;;;;;;5076536;28;20043;-70
2021/01/30 00:17:49;;;;;;;28.48;16.67;;;179.70;2252.80;;;;;;5097184;28;20031;-71
2021/01/30 00:20:15;;;;;;;35.75;20.15;;;179.70;2252.80;;;;;;5097522;28;20498;-70
2021/01/30 00:22:41;;;;;;;24.98;15.15;;;179.60;2252.80;;;;;;5093434;28;20024;-69
2021/01/30 00:25:07;;;;;;;34.80;17.67;;;179.60;2252.80;;;;;;5104730;28;20026;-70
2021/01/30 00:27:32;;;;;;;48.05;24.55;;;179.60;2252.80;;;;;;5078732;28;20515;-70
2021/01/30 00:29:58;;;;;;;43.95;21.85;;;179.70;2252.80;;;;;;5093379;28;20020;-71
2021/01/30 00:32:23;;;;;;;38.03;20.10;;;179.60;2252.80;;;;;;5092354;28;20028;-71
2021/01/30 00:34:50;;;;;;;45.58;24.50;;;179.60;2252.80;;;;;;5093809;28;20024;-70
2021/01/30 00:37:20;;;;;;;39.55;22.42;;;179.60;2252.80;;;;;;5093608;28;20040;-71
2021/01/30 00:39:46;;;;;;;41.28;22.77;;;179.60;2252.80;;;;;;5078939;28;20350;-73
2021/01/30 00:42:13;;;;;;;36.95;21.38;;;179.60;2252.80;;;;;;5098424;28;20103;-69
2021/01/30 00:44:38;;;;;;;42.08;22.10;;;179.50;2252.80;;;;;;5084055;28;20480;-71
2021/01/30 00:47:05;;;;;;;41.17;21.50;;;179.60;2252.80;;;;;;5067859;28;20032;-71
2021/01/30 00:49:42;;;;;;;53.93;27.20;;;179.60;2252.80;;;;;;5096355;28;20059;-72
2021/01/30 00:52:08;;;;;;;49.85;26.38;;;179.50;2252.80;;;;;;5074386;28;20040;-71
2021/01/30 00:54:34;;;;;;;30.83;18.30;;;179.60;2252.80;;;;;;5088269;28;20032;-71
2021/01/30 00:57:03;;;;;;;35.50;20.48;;;179.60;2252.80;;;;;;5063844;28;20073;-71
2021/01/30 00:59:28;;;;;;;36.35;21.08;;;179.60;2252.80;;;;;;5074534;28;20368;-71
2021/01/30 01:01:54;;;;;;;36.67;20.98;;;179.60;2252.80;;;;;;5097453;28;20031;-72
2021/01/30 01:04:20;;;;;;;40.88;21.45;;;179.60;2252.80;;;;;;5096808;28;20030;-70
2021/01/30 01:06:46;;;;;;;45.50;21.27;;;179.60;2252.80;;;;;;5095773;28;20036;-71
2021/01/30 01:09:12;;;;;;;49.00;22.30;;;179.60;2252.80;;;;;;5088195;28;20059;-70
2021/01/30 01:11:38;;;;;;;45.58;21.75;;;179.50;2252.80;;;;;;5092473;28;20020;-70
2021/01/30 01:14:04;;;;;;;37.08;19.10;;;179.50;2252.80;;;;;;5091851;28;20020;-70
2021/01/30 01:16:29;;;;;;;28.67;17.33;;;179.50;2252.80;;;;;;5091880;28;20038;-69
2021/01/30 01:18:55;;;;;;;29.85;18.13;;;179.40;2252.80;;;;;;5091751;28;20043;-70
2021/01/30 01:21:20;;;;;;;39.63;20.73;;;179.40;2252.80;;;;;;5092173;28;20487;-70
2021/01/30 01:23:46;;;;;;;38.85;19.25;;;179.30;2252.80;;;;;;5073737;28;20043;-70
2021/01/30 01:26:13;;;;;;;41.22;20.67;;;179.40;2252.80;;;;;;5084524;28;20012;-69
2021/01/30 01:28:39;;;;;;;40.03;19.45;;;179.40;2252.80;;;;;;5090676;28;20020;-70
2021/01/30 01:31:04;;;;;;;35.47;20.20;;;179.40;2252.80;;;;;;5073232;28;20036;-70
2021/01/30 01:33:30;;;;;;;40.28;22.20;;;179.40;2252.80;;;;;;5090752;28;20082;-69
2021/01/30 01:35:56;;;;;;;32.20;19.45;;;179.40;2252.80;;;;;;5090928;28;20028;-69
2021/01/30 01:38:21;;;;;;;32.90;19.85;;;179.40;2252.80;;;;;;5091976;28;20012;-69
2021/01/30 01:40:47;;;;;;;32.40;19.08;;;179.50;2252.80;;;;;;5089426;28;20024;-70
2021/01/30 01:43:20;;;;;;;39.22;21.33;;;179.50;2252.80;;;;;;5091366;28;20040;-69
2021/01/30 01:46:08;;;;;;;49.13;25.02;;;179.60;2252.80;;;;;;5092011;28;20035;-69
2021/01/30 01:48:40;;;;;;;45.17;25.83;;;179.50;2252.80;;;;;;5088963;28;20020;-69
2021/01/30 01:51:06;;;;;;;44.67;23.80;;;179.50;2252.80;;;;;;5057122;28;20036;-69
2021/01/30 01:53:33;;;;;;;69.97;37.58;;;179.50;2252.80;;;;;;5056575;28;20016;-70
2021/01/30 01:56:20;;;;;;;51.22;30.70;;;179.50;2252.80;;;;;;5056821;28;20020;-72
2021/01/30 01:58:48;;;;;;;43.15;19.90;;;179.50;2252.80;;;;;;5077139;28;20024;-69
2021/01/30 02:01:13;;;;;;;58.97;24.52;;;179.60;2252.80;;;;;;5074859;28;20368;-70
2021/01/30 02:03:40;;;;;;;37.75;22.33;;;179.50;2252.80;;;;;;5055924;28;20012;-69
2021/01/30 02:06:09;;;;;;;22.27;14.65;;;179.50;2252.80;;;;;;5056827;28;20031;-71
2021/01/30 02:08:34;;;;;;;24.60;14.82;;;179.30;2252.80;;;;;;5073138;28;20095;-71
2021/01/30 02:11:00;;;;;;;25.60;17.27;;;179.30;2252.80;;;;;;5085434;28;20487;-70
2021/01/30 02:13:27;;;;;;;23.70;15.32;;;179.30;2252.80;;;;;;5092149;28;20749;-70
2021/01/30 02:16:08;;;;;;;25.25;15.25;;;179.40;2252.80;;;;;;5091449;28;20044;-69
2021/01/30 02:18:34;;;;;;;34.60;19.88;;;179.40;2252.80;;;;;;5054089;28;20024;-70
2021/01/30 02:21:37;;;;;;;41.17;23.30;;;179.40;2252.80;;;;;;5097090;28;20095;-69
2021/01/30 02:24:27;;;;;;;39.63;22.27;;;179.40;2252.80;;;;;;5091099;28;20386;-70
2021/01/30 02:27:33;;;;;;;36.22;19.70;;;179.40;2252.80;;;;;;5073221;28;20027;-70
2021/01/30 02:30:10;;;;;;;33.33;19.13;;;179.40;2252.80;;;;;;5093797;28;20020;-70
2021/01/30 02:33:04;;;;;;;30.85;18.02;;;179.40;2252.80;;;;;;5093882;28;20020;-71
2021/01/30 02:36:07;;;;;;;30.50;17.50;;;179.30;2252.80;;;;;;5087125;28;20031;-69
2021/01/30 02:38:34;;;;;;;30.35;17.50;;;179.40;2252.80;;;;;;5090585;28;20015;-70
2021/01/30 02:41:06;;;;;;;24.55;14.98;;;179.30;2252.80;;;;;;5089795;28;20016;-70
2021/01/30 02:43:45;;;;;;;27.63;15.68;;;179.40;2252.80;;;;;;5089551;28;20016;-73
2021/01/30 02:46:14;;;;;;;28.52;15.52;;;179.40;2252.80;;;;;;5089871;28;20028;-71
2021/01/30 02:48:45;;;;;;;30.25;16.85;;;179.40;2252.80;;;;;;5072400;28;20031;-70
2021/01/30 02:51:23;;;;;;;26.73;15.50;;;179.30;2252.80;;;;;;5089362;28;20028;-70
2021/01/30 02:53:53;;;;;;;23.63;14.50;;;179.30;2252.80;;;;;;5073205;28;20069;-70
2021/01/30 02:56:23;;;;;;;;;;;179.30;2252.80;;;;;;5089919;28;20483;-70
2021/01/30 02:59:12;;;;;;;20.35;12.40;;;179.40;2252.80;;;;;;5090801;28;20018;-70
2021/01/30 03:01:38;;;;;;;24.52;13.65;;;179.30;2252.80;;;;;;5089520;28;20020;-69
2021/01/30 03:04:07;;;;;;;26.25;14.82;;;179.40;2252.80;;;;;;5092180;28;20031;-70
2021/01/30 03:06:52;;;;;;;27.48;15.35;;;179.40;2252.80;;;;;;5089281;28;20499;-71
2021/01/30 03:10:01;;;;;;;38.28;19.85;;;179.40;2252.80;;;;;;5074605;28;20028;-71
2021/01/30 03:13:08;;;;;;;33.95;18.42;;;179.30;2252.80;;;;;;5077341;28;20024;-71
2021/01/30 03:15:52;;;;;;;28.00;15.32;;;179.30;2252.80;;;;;;5091976;28;20123;-70
2021/01/30 03:18:30;;;;;;;28.92;16.42;;;179.20;2252.80;;;;;;5092770;28;20016;-70
2021/01/30 03:21:09;;;;;;;28.27;15.88;;;179.30;2252.80;;;;;;5065362;28;20387;-70
2021/01/30 03:23:35;;;;;;;22.58;13.77;;;179.30;2252.80;;;;;;5076425;28;20021;-70
2021/01/30 03:26:30;;;;;;;21.70;12.85;;;179.30;2252.80;;;;;;5093195;28;20077;-71
2021/01/30 03:28:56;;;;;;;25.65;16.77;;;179.20;2252.80;;;;;;5070398;28;20400;-71
2021/01/30 03:31:22;;;;;;;17.02;10.50;;;154.50;2252.80;;;;;;5093171;28;20061;-70
2021/01/30 03:33:48;;;;;;;23.73;16.60;;;154.50;2252.80;;;;;;5094764;28;20064;-70
2021/01/30 03:36:25;;;;;;;21.67;12.07;;;154.50;2252.80;;;;;;5094462;28;20433;-71
2021/01/30 03:38:51;;;;;;;15.35;8.93;;;154.40;2252.80;;;;;;5093524;28;20020;-70
2021/01/30 03:41:20;;;;;;;16.67;9.65;;;154.40;2252.80;;;;;;5094374;28;20043;-70
2021/01/30 03:43:45;;;;;;;15.80;8.93;;;154.40;2252.80;;;;;;5094100;28;20032;-71
2021/01/30 03:46:14;;;;;;;12.07;6.97;;;154.40;2252.80;;;;;;5094945;28;20069;-71
2021/01/30 03:48:40;;;;;;;14.80;8.00;;;154.30;2252.80;;;;;;5096800;28;20024;-71
2021/01/30 03:51:05;;;;;;;12.98;7.22;;;154.30;2252.80;;;;;;5080584;28;20030;-70
2021/01/30 03:53:31;;;;;;;12.90;7.00;;;154.30;2252.80;;;;;;5094271;28;20076;-70
2021/01/30 03:56:02;;;;;;;16.05;6.88;;;154.20;2252.80;;;;;;5093825;28;20481;-68
2021/01/30 03:58:28;;;;;;;13.35;7.55;;;154.20;2252.80;;;;;;5092874;28;20024;-71
2021/01/30 04:00:53;;;;;;;14.02;8.55;;;154.20;2252.80;;;;;;5094043;28;20025;-71
2021/01/30 04:03:19;;;;;;;31.25;17.50;;;154.10;2252.80;;;;;;5093827;28;20016;-70
2021/01/30 04:05:45;;;;;;;16.15;9.55;;;154.10;2252.80;;;;;;5093949;28;20036;-71
2021/01/30 04:08:10;;;;;;;14.27;7.90;;;154.10;2252.80;;;;;;5093892;28;20145;-71
2021/01/30 04:10:36;;;;;;;11.60;6.38;;;154.10;2252.80;;;;;;5092233;28;20025;-71
2021/01/30 04:13:04;;;;;;;10.23;5.60;;;154.10;2252.80;;;;;;5093828;28;20047;-70
2021/01/30 04:15:34;;;;;;;9.27;6.05;;;154.10;2252.80;;;;;;5093443;28;20051;-71
2021/01/30 04:18:00;;;;;;;11.88;5.68;;;154.10;2252.80;;;;;;5093729;28;20376;-69
2021/01/30 04:20:26;;;;;;;15.23;7.50;;;154.20;2252.80;;;;;;5093336;28;20028;-66
2021/01/30 04:22:51;;;;;;;17.92;9.70;;;154.20;2252.80;;;;;;5093868;28;20020;-70
2021/01/30 04:25:18;;;;;;;10.88;5.78;;;154.10;2252.80;;;;;;5099739;28;20104;-70
2021/01/30 04:27:44;;;;;;;14.15;6.70;;;154.10;2252.80;;;;;;5092070;28;20506;-70
2021/01/30 04:30:51;;;;;;;16.83;6.95;;;154.20;2252.80;;;;;;5092923;28;20032;-70
2021/01/30 04:33:23;;;;;;;15.82;7.68;;;154.10;2252.80;;;;;;5077360;28;20044;-70
2021/01/30 04:35:58;;;;;;;16.52;7.78;;;154.10;2252.80;;;;;;5090490;28;20024;-71
2021/01/30 04:38:23;;;;;;;15.82;6.85;;;154.10;2252.80;;;;;;5093152;28;20166;-71
2021/01/30 04:41:35;;;;;;;12.70;7.03;;;154.10;2252.80;;;;;;5093081;28;20031;-71
2021/01/30 04:44:27;;;;;;;32.22;19.98;;;154.10;2252.80;;;;;;5067616;28;20509;-70
2021/01/30 04:47:11;;;;;;;14.35;8.77;;;154.10;2252.80;;;;;;5090991;28;20103;-70
2021/01/30 04:49:43;;;;;;;8.98;5.10;;;154.00;2252.80;;;;;;5092603;28;20081;-71
2021/01/30 04:52:29;;;;;;;9.75;5.40;;;154.10;2252.80;;;;;;5093142;28;20484;-71
2021/01/30 04:55:01;;;;;;;15.65;7.53;;;154.10;2252.80;;;;;;5079255;28;20027;-71
2021/01/30 04:57:39;;;;;;;9.10;5.60;;;154.00;2252.80;;;;;;5092612;28;20028;-71
2021/01/30 05:00:29;;;;;;;11.75;5.97;;;154.00;2252.80;;;;;;5074020;28;20024;-70
2021/01/30 05:03:15;;;;;;;11.38;7.20;;;154.10;2252.80;;;;;;5105044;28;20047;-71
2021/01/30 05:05:43;;;;;;;9.05;5.40;;;154.00;2252.80;;;;;;5091570;28;20031;-70
2021/01/30 05:08:44;;;;;;;13.20;7.50;;;154.10;2252.80;;;;;;5074851;28;20457;-70
2021/01/30 05:11:16;;;;;;;14.52;7.90;;;154.10;2252.80;;;;;;5068316;28;20427;-71
2021/01/30 05:14:08;;;;;;;11.95;7.57;;;154.10;2252.80;;;;;;5078932;28;20750;-71
2021/01/30 05:17:18;;;;;;;11.13;6.80;;;154.10;2252.80;;;;;;5091766;28;20048;-71
2021/01/30 05:19:46;;;;;;;12.40;7.60;;;154.10;2252.80;;;;;;5091868;28;20024;-72
2021/01/30 05:22:14;;;;;;;18.40;11.18;;;154.00;2252.80;;;;;;5074585;28;20380;-70
2021/01/30 05:24:44;;;;;;;15.65;9.13;;;154.00;2252.80;;;;;;5090957;28;20341;-69
2021/01/30 05:27:29;;;;;;;15.57;9.32;;;154.10;2252.80;;;;;;5091139;28;20103;-70
2021/01/30 05:30:03;;;;;;;16.63;11.05;;;153.90;2252.80;;;;;;5073832;28;20035;-71
2021/01/30 05:32:35;;;;;;;14.05;8.05;;;153.80;2252.80;;;;;;5092370;28;20016;-71
2021/01/30 05:35:02;;;;;;;15.18;7.53;;;153.80;2252.80;;;;;;5074264;28;20077;-69
2021/01/30 05:37:58;;;;;;;11.40;6.13;;;153.90;2252.80;;;;;;5090775;28;20081;-69
2021/01/30 05:40:46;;;;;;;13.85;7.88;;;154.00;2252.80;;;;;;5091756;28;20016;-68
2021/01/30 05:43:26;;;;;;;36.53;16.98;;;154.00;2252.80;;;;;;5090774;28;20051;-70
2021/01/30 05:45:58;;;;;;;13.07;7.63;;;154.00;2252.80;;;;;;5090859;28;20020;-72
2021/01/30 05:48:31;;;;;;;13.40;7.75;;;154.00;2252.80;;;;;;5073584;28;20028;-69
2021/01/30 05:51:15;;;;;;;12.75;8.35;;;154.00;2252.80;;;;;;5073784;28;20077;-70
2021/01/30 05:53:45;;;;;;;13.00;8.10;;;154.00;2252.80;;;;;;5090770;28;20024;-70
2021/01/30 05:56:17;;;;;;;12.93;8.23;;;153.90;2252.80;;;;;;5090687;28;20037;-70
2021/01/30 05:58:43;;;;;;;12.20;7.60;;;153.90;2252.80;;;;;;5091598;28;20244;-70
2021/01/30 06:01:24;;;;;;;9.63;5.90;;;153.90;2252.80;;;;;;5057072;28;20427;-69
2021/01/30 06:04:09;;;;;;;12.80;6.90;;;153.80;2252.80;;;;;;5090289;28;20020;-70
2021/01/30 06:06:35;;;;;;;14.80;7.85;;;153.70;2252.80;;;;;;5091586;28;20050;-71
2021/01/30 06:09:12;;;;;;;15.38;9.80;;;153.70;2252.80;;;;;;5091231;28;20024;-69
2021/01/30 06:11:49;;;;;;;15.85;11.05;;;153.70;2252.80;;;;;;5090778;28;20020;-70
2021/01/30 06:14:34;;;;;;;16.98;10.75;;;153.80;2252.80;;;;;;5073842;28;20046;-70
2021/01/30 06:17:00;;;;;;;17.95;11.10;;;153.70;2252.80;;;;;;5090353;28;20038;-70
2021/01/30 06:19:30;;;;;;;17.10;11.18;;;153.80;2252.80;;;;;;5091133;28;20027;-70
2021/01/30 06:22:22;;;;;;;19.08;12.75;;;153.80;2252.80;;;;;;5091279;28;20151;-70
2021/01/30 06:24:47;;;;;;;17.13;11.45;;;153.70;2252.80;;;;;;5091281;28;20012;-70
2021/01/30 06:27:24;;;;;;;19.10;12.77;;;153.70;2252.80;;;;;;5091482;28;20043;-70
2021/01/30 06:29:55;;;;;;;18.42;11.23;;;153.80;2252.80;;;;;;5073142;28;20069;-70
2021/01/30 06:32:48;;;;;;;45.78;21.77;;;153.80;2252.80;;;;;;5090230;28;20031;-69
2021/01/30 06:35:17;;;;;;;29.10;17.23;;;153.90;2252.80;;;;;;5091228;28;20086;-70
2021/01/30 06:38:13;;;;;;;30.88;17.40;;;153.90;2252.80;;;;;;5091242;28;20099;-70
2021/01/30 06:41:13;;;;;;;53.83;27.13;;;154.00;2252.80;;;;;;5089800;28;20114;-71
2021/01/30 06:43:59;;;;;;;44.63;23.80;;;154.00;2252.80;;;;;;5062230;28;20387;-71
2021/01/30 06:46:35;;;;;;;76.63;34.25;;;154.10;2252.80;;;;;;5075791;28;20265;-71
2021/01/30 06:49:15;;;;;;;127.78;52.25;;;154.10;2252.80;;;;;;5089599;28;20028;-71
2021/01/30 06:51:41;;;;;;;69.13;32.88;;;154.20;2252.80;;;;;;5084199;28;20537;-70
2021/01/30 06:54:16;;;;;;;50.80;27.55;;;154.10;2252.80;;;;;;5094091;28;20028;-70
2021/01/30 06:56:42;;;;;;;31.50;20.85;;;154.10;2252.80;;;;;;5081957;28;20032;-73
2021/01/30 06:59:13;;;;;;;25.20;16.38;;;154.10;2252.80;;;;;;5093478;28;20024;-71
2021/01/30 07:01:41;;;;;;;24.65;16.08;;;154.00;2252.80;;;;;;5093197;28;20053;-70
2021/01/30 07:05:04;;;;;;;23.10;13.48;;;154.00;2252.80;;;;;;5093413;28;20024;-69
2021/01/30 07:07:49;;;;;;;21.48;13.43;;;154.00;2252.80;;;;;;5044100;28;20033;-70
2021/01/30 07:10:34;;;;;;;110.22;46.40;;;153.90;2252.80;;;;;;5052371;28;20037;-71
2021/01/30 07:13:20;;;;;;;111.78;50.60;;;154.10;2252.80;;;;;;5052011;28;20037;-70
2021/01/30 07:16:31;;;;;;;43.90;25.00;;;154.10;2252.80;;;;;;5034833;28;20041;-70
2021/01/30 07:19:28;;;;;;;62.30;35.85;;;154.30;2252.80;;;;;;5051463;28;20028;-71
2021/01/30 07:22:03;;;;;;;42.15;24.98;;;154.30;2252.80;;;;;;5094961;28;20016;-70
2021/01/30 07:24:37;;;;;;;55.00;31.20;;;154.30;2252.80;;;;;;5093633;28;20012;-69
2021/01/30 07:27:21;;;;;;;55.67;33.17;;;154.30;2252.80;;;;;;5092558;28;20074;-69
2021/01/30 07:30:08;;;;;;;68.55;38.67;;;154.40;2252.80;;;;;;5092907;28;20498;-71
2021/01/30 07:32:40;;;;;;;124.55;58.88;;;154.50;2252.80;;;;;;5082009;28;20028;-70
2021/01/30 07:35:18;;;;;;;89.55;49.35;;;154.50;2252.80;;;;;;5056821;28;20028;-69
2021/01/30 07:38:10;;;;;;;55.65;35.13;;;179.20;2252.80;;;;;;5091675;28;20028;-70
2021/01/30 07:41:01;;;;;;;60.90;35.08;;;179.30;2252.80;;;;;;5090972;28;20054;-72
2021/01/30 07:43:31;;;;;;;52.08;29.85;;;179.30;2252.80;;;;;;5093037;28;20030;-69
2021/01/30 07:46:24;;;;;;;42.25;26.83;;;179.40;2252.80;;;;;;5092295;28;20038;-70
2021/01/30 07:49:17;;;;;;;48.38;29.00;;;179.50;2252.80;;;;;;5093726;28;20031;-70
2021/01/30 07:52:21;;;;;;;44.45;26.27;;;179.50;2252.80;;;;;;5076263;28;20062;-70
2021/01/30 07:55:12;;;;;;;36.33;23.42;;;179.70;2252.80;;;;;;5068947;28;20107;-71
2021/01/30 07:57:56;;;;;;;29.17;18.83;;;179.70;2252.80;;;;;;5072821;28;20036;-73
2021/01/30 08:00:31;;;;;;;38.35;23.15;;;179.80;2252.80;;;;;;5092637;28;20016;-70
2021/01/30 08:03:38;;;;;;;34.92;22.58;;;179.90;2252.80;;;;;;5093026;28;20511;-69
2021/01/30 08:06:41;;;;;;;29.60;17.85;;;180.00;2252.80;;;;;;5075823;28;20116;-70
2021/01/30 08:09:34;;;;;;;30.70;19.10;;;180.10;2252.80;;;;;;5084372;28;20024;-70
2021/01/30 08:12:09;;;;;;;33.63;21.73;;;204.90;2252.80;;;;;;5079235;28;20044;-71
2021/01/30 08:14:38;;;;;;;28.63;17.30;;;205.00;2252.80;;;;;;5090880;28;20115;-70
2021/01/30 08:17:22;;;;;;;27.90;17.83;;;205.10;2252.80;;;;;;5069586;28;20116;-71
2021/01/30 08:19:59;;;;;;;24.33;14.50;;;205.30;2252.80;;;;;;5095202;28;20303;-70
2021/01/30 08:22:32;;;;;;;25.52;16.05;;;205.30;2252.80;;;;;;5092786;28;20016;-68
2021/01/30 08:25:02;;;;;;;25.60;17.08;;;205.40;2252.80;;;;;;5074083;28;20059;-70
2021/01/30 08:27:29;;;;;;;28.97;17.33;;;205.40;2252.80;;;;;;5082783;28;20508;-70
2021/01/30 08:30:27;;;;;;;28.73;17.15;;;205.20;2252.80;;;;;;5074410;28;20031;-71
2021/01/30 08:33:06;;;;;;;16.95;11.20;;;205.20;2252.80;;;;;;5097814;28;20019;-71
2021/01/30 08:35:32;;;;;;;20.52;13.43;;;205.40;2252.80;;;;;;5094248;28;20016;-71
2021/01/30 08:38:32;;;;;;;34.80;18.55;;;205.60;2252.80;;;;;;5092668;28;20036;-71
2021/01/30 08:41:00;;;;;;;24.00;15.38;;;205.70;2252.80;;;;;;5069326;28;20048;-70
2021/01/30 08:43:43;;;;;;;20.10;13.10;;;230.50;2252.80;;;;;;5066167;28;20028;-70
2021/01/30 08:46:38;;;;;;;19.15;12.38;;;230.80;2252.80;;;;;;5073151;28;20099;-69
2021/01/30 08:49:09;;;;;;;30.65;17.00;;;231.00;2252.80;;;;;;5056555;28;20021;-69
2021/01/30 08:51:35;;;;;;;35.17;19.33;;;256.60;2150.40;;;;;;5074928;28;20043;-71
2021/01/30 08:54:19;;;;;;;35.60;20.52;;;256.20;2201.60;;;;;;5086359;28;20133;-70
2021/01/30 08:56:49;;;;;;;36.35;22.63;;;384.60;1740.80;;;;;;5071579;28;20025;-69
2021/01/30 08:59:40;;;;;;;17.73;12.47;;;436.10;1536.00;;;;;;5074184;28;20078;-70
2021/01/30 09:02:05;;;;;;;17.20;11.68;;;460.80;1510.40;;;;;;5073897;28;20029;-73
2021/01/30 09:04:45;;;;;;;12.85;8.02;;;410.30;1587.20;;;;;;5053075;28;20055;-72
2021/01/30 09:07:38;;;;;;;12.97;8.47;;;384.90;1612.80;;;;;;5074151;28;20028;-70
2021/01/30 09:10:16;;;;;;;11.18;6.90;;;384.30;1638.40;;;;;;5091592;28;20115;-70
2021/01/30 09:13:25;;;;;;;11.23;6.88;;;359.20;1689.60;;;;;;5073167;28;20020;-71
2021/01/30 09:15:58;;;;;;;10.23;7.68;;;359.30;1689.60;;;;;;5086130;28;20043;-71
2021/01/30 09:18:36;;;;;;;8.52;6.15;;;359.30;1715.20;;;;;;5091484;28;20387;-70
2021/01/30 09:21:17;;;;;;;9.52;7.20;;;359.10;1740.80;;;;;;5091478;28;20103;-72
2021/01/30 09:24:11;;;;;;;12.15;8.30;;;358.80;1740.80;;;;;;5060335;28;20016;-72
2021/01/30 09:26:49;;;;;;;16.55;10.57;;;359.30;1740.80;;;;;;5086756;28;20149;-71
2021/01/30 09:32:15;;;;;;;12.30;8.65;;;512.90;1228.80;;;;;;5076110;28;20066;-72
2021/01/30 09:34:53;;;;;;;12.45;8.38;;;563.20;1228.80;;;;;;5057911;28;20111;-74
2021/01/30 09:37:33;;;;;;;11.20;7.85;;;512.60;1228.80;;;;;;5057407;28;20021;-74
2021/01/30 09:40:04;;;;;;;14.27;8.48;;;460.90;1433.60;;;;;;5095099;28;20021;-71
2021/01/30 09:42:29;;;;;;;11.70;8.00;;;589.70;1075.20;;;;;;5094894;28;20082;-72
2021/01/30 09:45:08;;;;;;;13.05;9.25;;;512.90;1203.20;;;;;;5095259;28;20028;-70
2021/01/30 09:47:42;;;;;;;12.73;7.43;;;512.20;1280.00;;;;;;5090874;28;20017;-72
2021/01/30 09:50:11;;;;;;;26.55;16.35;;;486.70;1331.20;;;;;;5076585;28;20020;-71
2021/01/30 09:52:38;;;;;;;124.65;45.35;;;460.90;1459.20;;;;;;5079527;28;20012;-71
2021/01/30 09:55:10;;;;;;;24.20;13.30;;;435.20;1510.40;;;;;;5077624;28;20079;-72
2021/01/30 09:57:38;;;;;;;13.27;9.32;;;409.70;1638.40;;;;;;5092802;28;20480;-72
2021/01/30 10:00:35;;;;;;;27.13;17.67;;;409.70;1638.40;;;;;;5071216;28;20400;-71
2021/01/30 10:03:23;;;;;;;15.40;10.38;;;409.70;1638.40;;;;;;5072143;28;20040;-72
2021/01/30 10:05:50;;;;;;;20.30;15.00;;;409.70;1612.80;;;;;;5090553;28;20020;-71
2021/01/30 10:08:26;;;;;;;13.35;9.38;;;410.20;1612.80;;;;;;5070578;28;20037;-73
2021/01/30 10:11:01;;;;;;;22.35;15.15;;;435.40;1510.40;;;;;;5083269;28;20024;-73
2021/01/30 10:13:27;;;;;;;22.83;14.65;;;537.70;1280.00;;;;;;5084438;28;20015;-71
2021/01/30 10:15:54;;;;;;;16.00;10.23;;;563.60;1203.20;;;;;;5052824;28;20052;-74
2021/01/30 10:18:22;;;;;;;11.20;7.95;;;564.10;1152.00;;;;;;5050984;28;20031;-72
2021/01/30 10:20:52;;;;;;;11.90;9.35;;;563.50;1177.60;;;;;;5057277;28;20012;-72
2021/01/30 10:23:48;;;;;;;9.40;7.20;;;563.60;1203.20;;;;;;5056459;28;20036;-72
2021/01/30 10:26:26;;;;;;;11.73;8.25;;;512.90;1203.20;;;;;;5074454;28;20024;-70
2021/01/30 10:28:54;;;;;;;11.00;8.27;;;512.10;1280.00;;;;;;5071969;28;20054;-70
2021/01/30 10:31:36;;;;;;;10.02;7.57;;;486.60;1356.80;;;;;;5062419;28;20069;-70
2021/01/30 10:34:33;;;;;;;13.75;9.82;;;461.60;1408.00;;;;;;5089130;28;20043;-69
2021/01/30 10:37:01;;;;;;;14.98;10.43;;;461.00;1433.60;;;;;;5077652;28;20130;-73
2021/01/30 10:39:37;;;;;;;13.32;10.15;;;460.90;1484.80;;;;;;5057199;28;20028;-69
2021/01/30 10:42:09;;;;;;;24.30;16.50;;;461.00;1459.20;;;;;;5069451;28;20473;-70
2021/01/30 10:44:34;;;;;;;19.02;14.23;;;461.10;1484.80;;;;;;5073733;28;20039;-70
2021/01/30 10:47:01;;;;;;;12.73;9.50;;;486.50;1433.60;;;;;;5073578;28;20047;-71
2021/01/30 10:49:28;;;;;;;13.52;10.57;;;564.10;1152.00;;;;;;5084393;28;20058;-69
2021/01/30 10:52:10;;;;;;;17.02;11.95;;;717.10;896.00;;;;;;5084847;28;20031;-70
2021/01/30 10:54:42;;;;;;;45.92;32.22;;;819.60;819.20;;;;;;5051742;28;20036;-71
2021/01/30 10:57:17;;;;;;;12.90;9.88;;;743.30;844.80;;;;;;5057182;28;20020;-71
2021/01/30 11:00:25;;;;;;;15.48;10.25;;;640.10;972.80;;;;;;5081876;28;20550;-71
2021/01/30 11:02:50;;;;;;;34.53;22.85;;;563.30;1177.60;;;;;;5062292;28;20032;-70
2021/01/30 11:05:19;;;;;;;15.20;9.68;;;487.10;1280.00;;;;;;5076611;28;20020;-68
2021/01/30 11:08:00;;;;;;;11.52;8.75;;;486.70;1356.80;;;;;;5082583;28;20100;-68
2021/01/30 11:10:37;;;;;;;20.85;13.13;;;461.70;1382.40;;;;;;5088744;28;20100;-68
2021/01/30 11:13:18;;;;;;;18.42;11.13;;;461.30;1408.00;;;;;;5086082;28;20027;-68
2021/01/30 11:15:44;;;;;;;15.07;10.93;;;461.20;1408.00;;;;;;5064700;28;689251;-67
2021/01/30 11:18:18;;;;;;;14.25;11.48;;;486.50;1382.40;;;;;;5057310;28;20361;-68
2021/01/30 11:20:46;;;;;;;14.00;10.32;;;589.60;1100.80;;;;;;5060840;28;20020;-69
2021/01/30 11:23:34;;;;;;;13.13;9.73;;;692.10;870.40;;;;;;5041282;28;20033;-68
2021/01/30 11:26:10;;;;;;;17.45;12.02;;;768.30;819.20;;;;;;5075905;28;20047;-70
2021/01/30 11:28:36;;;;;;;15.60;10.32;;;691.20;921.60;;;;;;5075647;28;20715;-69
2021/01/30 11:31:05;;;;;;;121.78;71.15;;;589.70;1075.20;;;;;;5081702;28;20060;-69
2021/01/30 11:33:31;;;;;;;18.38;13.48;;;538.10;1203.20;;;;;;5065577;28;20043;-70
2021/01/30 11:35:56;;;;;;;18.25;13.13;;;512.10;1280.00;;;;;;5077044;28;20504;-74
2021/01/30 11:38:24;;;;;;;16.17;13.10;;;486.70;1356.80;;;;;;5068347;28;20031;-69
2021/01/30 11:40:51;;;;;;;33.83;27.15;;;461.40;1408.00;;;;;;5086587;28;20051;-70
2021/01/30 11:43:18;;;;;;;37.58;27.10;;;436.10;1459.20;;;;;;5081887;28;20150;-70
2021/01/30 11:45:43;;;;;;;14.32;9.23;;;435.60;1536.00;;;;;;5086642;28;20142;-68
2021/01/30 11:48:09;;;;;;;14.35;8.07;;;435.70;1510.40;;;;;;5071246;28;20471;-71
2021/01/30 11:50:35;;;;;;;15.45;10.85;;;460.80;1484.80;;;;;;5053203;28;20024;-72
2021/01/30 11:53:15;;;;;;;32.45;21.23;;;461.20;1484.80;;;;;;5049768;28;20020;-70
2021/01/30 11:55:44;;;;;;;20.52;14.02;;;435.50;1510.40;;;;;;5077582;28;20373;-68
2021/01/30 11:58:10;;;;;;;19.85;13.80;;;435.30;1536.00;;;;;;5088725;28;20024;-68
2021/01/30 12:00:36;;;;;;;17.27;13.07;;;435.70;1536.00;;;;;;5073315;28;20285;-69
2021/01/30 12:03:05;;;;;;;10.55;7.55;;;435.70;1561.60;;;;;;5081264;28;20016;-70
2021/01/30 12:05:31;;;;;;;19.60;13.82;;;461.70;1433.60;;;;;;5075541;28;20027;-68
2021/01/30 12:07:59;;;;;;;12.18;8.02;;;563.60;1228.80;;;;;;5075070;28;20028;-69
2021/01/30 12:10:25;;;;;;;11.98;8.43;;;589.50;1126.40;;;;;;5089983;28;20028;-68
2021/01/30 12:12:51;;;;;;;11.68;9.05;;;588.90;1177.60;;;;;;5083358;28;20439;-68
2021/01/30 12:15:17;;;;;;;7.63;5.75;;;512.80;1254.40;;;;;;5076148;28;20094;-71
2021/01/30 12:17:49;;;;;;;12.85;10.70;;;486.70;1356.80;;;;;;5074725;28;20070;-70
2021/01/30 12:20:23;;;;;;;13.23;9.68;;;461.40;1459.20;;;;;;5085851;28;20047;-68
2021/01/30 12:22:49;;;;;;;10.52;9.15;;;461.00;1484.80;;;;;;5084396;28;20047;-71
2021/01/30 12:25:18;;;;;;;8.90;7.28;;;486.40;1459.20;;;;;;5090809;28;20484;-70
2021/01/30 12:28:00;;;;;;;11.65;8.23;;;563.30;1203.20;;;;;;5074502;28;20480;-69
2021/01/30 12:30:31;;;;;;;14.98;9.27;;;486.40;1382.40;;;;;;5092750;28;20035;-68
2021/01/30 12:32:57;;;;;;;;;;;461.10;1484.80;;;;;;5093212;28;20027;-68
2021/01/30 12:35:23;;;;;;;13.70;9.43;;;435.90;1484.80;;;;;;5092986;28;19904;-68
2021/01/30 12:37:49;;;;;;;10.50;6.80;;;435.60;1561.60;;;;;;5093088;28;20024;-70
2021/01/30 12:40:15;;;;;;;11.25;7.93;;;487.10;1356.80;;;;;;5091560;28;20077;-71
2021/01/30 12:42:41;;;;;;;12.23;7.93;;;563.90;1177.60;;;;;;5092992;28;20054;-70
2021/01/30 12:45:07;;;;;;;14.15;9.68;;;487.20;1331.20;;;;;;5092780;28;20098;-70